Time;durP1;ratioP1;P1;durP2;ratioP2;P2;SDS_P1;SDS_P2;PMS_P1;PMS_P2;Temp;Humidity;BMP_temperature;BMP_pressure;BME280_temperature;BME280_humidity;BME280_pressure;Samples;Min_cycle;Max_cycle;Signal;HPM_P1;HPM_P2
2024/03/03 00:01:09;;;;;;;;;;;;;;;17.84;59.29;100729.38;7389032;19;1843;-35
2024/03/03 00:03:38;;;;;;;;;;;;;;;17.85;59.44;100738.28;7391410;19;1524;-35
2024/03/03 00:06:07;;;;;;;;;;;;;;;17.92;59.46;100733.25;7392067;19;1101;-35
2024/03/03 00:08:35;;;;;;;;;;;;;;;17.94;59.35;100728.63;7391457;19;1408;-36
2024/03/03 00:11:04;;;;;;;;;;;;;;;17.98;59.20;100706.81;7391566;19;1623;-35
2024/03/03 00:13:33;;;;;;;;;;;;;;;18.11;58.69;100722.69;7391724;19;1696;-35
2024/03/03 00:16:01;;;;;;;;;;;;;;;18.14;58.67;100722.41;7390876;19;1165;-36
2024/03/03 00:18:37;;;;;;;;;;;;;;;18.14;58.69;100711.72;7391416;19;1621;-35
2024/03/03 00:21:06;;;;;;;;;;;;;;;18.05;58.75;100712.53;7388905;19;1876;-36
2024/03/03 00:23:34;;;;;;;;;;;;;;;18.01;58.87;100713.75;7391236;19;1614;-35
2024/03/03 00:26:02;;;;;;;;;;;;;;;17.99;58.82;100705.84;7390984;19;1500;-36
2024/03/03 00:28:31;;;;;;;;;;;;;;;17.99;58.77;100708.53;7390204;19;1169;-36
2024/03/03 00:30:59;;;;;;;;;;;;;;;17.92;58.83;100711.84;7390068;19;1126;-36
2024/03/03 00:33:27;;;;;;;;;;;;;;;17.92;58.72;100701.16;7375731;19;1924;-35
2024/03/03 00:35:59;;;;;;;;;;;;;;;17.87;58.92;100699.72;7389733;19;1167;-36
2024/03/03 00:38:27;;;;;;;;;;;;;;;17.85;59.08;100708.88;7389921;19;1160;-35
2024/03/03 00:40:55;;;;;;;;;;;;;;;17.82;59.35;100709.91;7388682;19;1849;-35
2024/03/03 00:43:24;;;;;;;;;;;;;;;17.93;59.22;100698.34;7390287;19;1492;-35
2024/03/03 00:45:52;;;;;;;;;;;;;;;17.86;59.26;100711.38;7389984;19;1171;-35
2024/03/03 00:48:20;;;;;;;;;;;;;;;17.97;59.18;100709.66;7389618;19;1278;-36
2024/03/03 00:50:49;;;;;;;;;;;;;;;17.97;59.14;100701.63;7389704;19;1207;-35
2024/03/03 00:53:20;;;;;;;;;;;;;;;18.01;58.63;100711.94;7390025;19;1631;-35
2024/03/03 00:55:50;;;;;;;;;;;;;;;18.01;58.83;100701.22;7390539;19;1527;-36
2024/03/03 00:58:19;;;;;;;;;;;;;;;18.02;58.67;100710.09;7391077;19;1058;-35
2024/03/03 01:00:48;;;;;;;;;;;;;;;17.99;58.55;100702.34;7388907;19;1858;-35
2024/03/03 01:03:16;;;;;;;;;;;;;;;17.97;58.56;100701.63;7389835;19;1563;-36
2024/03/03 01:05:44;;;;;;;;;;;;;;;17.95;58.61;100695.56;7389257;19;1132;-36
2024/03/03 01:08:13;;;;;;;;;;;;;;;17.95;58.66;100700.91;7388755;19;1599;-36
2024/03/03 01:10:45;;;;;;;;;;;;;;;17.89;58.75;100695.09;7388798;19;1523;-35
2024/03/03 01:13:13;;;;;;;;;;;;;;;17.76;59.00;100694.38;7388265;19;1212;-35
2024/03/03 01:15:41;;;;;;;;;;;;;;;17.76;59.21;100691.72;7388780;19;1235;-36
2024/03/03 01:18:10;;;;;;;;;;;;;;;17.83;59.23;100695.59;7388834;19;1488;-36
2024/03/03 01:20:38;;;;;;;;;;;;;;;17.98;58.75;100703.31;7387488;19;1835;-36
2024/03/03 01:23:07;;;;;;;;;;;;;;;17.78;59.49;100700.44;7389255;19;1062;-36
2024/03/03 01:25:35;;;;;;;;;;;;;;;18.00;59.08;100704.03;7389301;19;1211;-36
2024/03/03 01:28:07;;;;;;;;;;;;;;;18.00;58.84;100698.66;7388630;19;1504;-36
2024/03/03 01:30:35;;;;;;;;;;;;;;;18.04;58.55;100708.13;7388615;19;1563;-35
2024/03/03 01:33:04;;;;;;;;;;;;;;;18.02;58.45;100696.72;7373325;19;1588;-36
2024/03/03 01:35:32;;;;;;;;;;;;;;;18.03;58.35;100709.13;7388238;19;1547;-35
2024/03/03 01:38:01;;;;;;;;;;;;;;;17.94;58.58;100704.53;7388002;19;1654;-35
2024/03/03 01:40:29;;;;;;;;;;;;;;;17.88;58.77;100696.06;7385260;19;1866;-35
2024/03/03 01:42:58;;;;;;;;;;;;;;;17.88;58.63;100701.41;7387297;19;1619;-35
2024/03/03 01:45:30;;;;;;;;;;;;;;;17.82;58.60;100695.69;7389091;19;1076;-36
2024/03/03 01:47:58;;;;;;;;;;;;;;;17.70;59.23;100697.56;7387988;19;1543;-35
2024/03/03 01:50:27;;;;;;;;;;;;;;;17.75;59.43;100700.72;7388183;19;1211;-36
2024/03/03 01:52:57;;;;;;;;;;;;;;;17.82;59.11;100693.88;7388887;19;1425;-36
2024/03/03 01:55:25;;;;;;;;;;;;;;;17.91;59.02;100710.19;7387856;19;1188;-36
2024/03/03 01:58:00;;;;;;;;;;;;;;;17.75;59.36;100699.88;7387906;19;1024;-36
2024/03/03 02:00:32;;;;;;;;;;;;;;;17.90;58.84;100701.28;7385726;19;2408;-36
2024/03/03 02:03:01;;;;;;;;;;;;;;;18.01;58.68;100692.34;7387947;19;1963;-35
2024/03/03 02:05:30;;;;;;;;;;;;;;;17.99;58.45;100694.31;7387661;19;1495;-35
2024/03/03 02:07:58;;;;;;;;;;;;;;;17.86;58.57;100694.50;7387339;19;1500;-36
2024/03/03 02:10:27;;;;;;;;;;;;;;;17.86;58.63;100681.13;7386761;19;1255;-35
2024/03/03 02:12:55;;;;;;;;;;;;;;;18.30;57.88;100705.91;7386793;19;1489;-35
2024/03/03 02:15:24;;;;;;;;;;;;;;;18.85;56.56;100705.63;7387016;19;1492;-36
2024/03/03 02:17:57;;;;;;;;;;;;;;;19.22;55.60;100702.34;7385034;19;1493;-36
2024/03/03 02:20:27;;;;;;;;;;;;;;;19.53;54.94;100696.84;7385929;19;1864;-35
2024/03/03 02:22:58;;;;;;;;;;;;;;;19.75;54.33;100693.06;7387845;19;1171;-36
2024/03/03 02:25:27;;;;;;;;;;;;;;;19.67;54.64;100689.22;7386414;19;1954;-36
2024/03/03 02:27:55;;;;;;;;;;;;;;;19.37;55.45;100705.44;7387088;19;1540;-41
2024/03/03 02:30:23;;;;;;;;;;;;;;;19.35;55.47;100697.53;7386380;19;1113;-36
2024/03/03 02:32:50;;;;;;;;;;;;;;;19.35;55.45;100686.81;7377487;19;1560;-36
2024/03/03 02:35:18;;;;;;;;;;;;;;;19.70;54.89;100690.78;7382822;19;1183;-35
2024/03/03 02:37:48;;;;;;;;;;;;;;;19.79;54.54;100706.03;7385947;19;1539;-35
2024/03/03 02:40:18;;;;;;;;;;;;;;;19.57;54.90;100695.59;7384369;19;1907;-36
2024/03/03 02:42:47;;;;;;;;;;;;;;;19.90;54.06;100688.13;7386465;19;1211;-35
2024/03/03 02:45:15;;;;;;;;;;;;;;;19.59;54.41;100690.94;7387550;19;1089;-36
2024/03/03 02:47:44;;;;;;;;;;;;;;;19.74;54.78;100694.91;7387356;19;1640;-36
2024/03/03 02:50:12;;;;;;;;;;;;;;;20.03;54.00;100696.69;7385895;19;1171;-36
2024/03/03 02:52:40;;;;;;;;;;;;;;;19.88;54.35;100700.84;7390007;19;1068;-35
2024/03/03 02:55:09;;;;;;;;;;;;;;;19.84;54.58;100687.69;7394399;19;1558;-36
2024/03/03 02:57:40;;;;;;;;;;;;;;;20.10;54.09;100688.94;7394390;19;1454;-40
2024/03/03 03:00:11;;;;;;;;;;;;;;;19.84;54.42;100690.38;7393436;19;1862;-36
2024/03/03 03:02:39;;;;;;;;;;;;;;;20.04;54.14;100699.25;7393881;19;1094;-36
2024/03/03 03:05:08;;;;;;;;;;;;;;;20.16;53.73;100693.72;7393331;19;1545;-36
2024/03/03 03:07:36;;;;;;;;;;;;;;;19.90;54.27;100691.66;7393990;19;1556;-36
2024/03/03 03:10:04;;;;;;;;;;;;;;;20.16;53.77;100712.53;7394048;19;1564;-36
2024/03/03 03:12:33;;;;;;;;;;;;;;;20.14;53.83;100690.34;7393859;19;1449;-36
2024/03/03 03:15:05;;;;;;;;;;;;;;;19.88;54.56;100690.09;7393852;19;1502;-36
2024/03/03 03:17:34;;;;;;;;;;;;;;;19.50;54.79;100652.41;7392511;19;1559;-35
2024/03/03 03:20:02;;;;;;;;;;;;;;;20.11;53.99;100698.66;7392775;19;1866;-36
2024/03/03 03:22:31;;;;;;;;;;;;;;;20.01;54.31;100688.78;7393286;19;1176;-36
2024/03/03 03:24:59;;;;;;;;;;;;;;;19.92;54.50;100694.19;7392782;19;1535;-36
2024/03/03 03:27:28;;;;;;;;;;;;;;;20.21;53.74;100692.31;7392703;19;1547;-36
2024/03/03 03:29:56;;;;;;;;;;;;;;;20.17;53.77;100700.78;7392848;19;1571;-36
2024/03/03 03:32:27;;;;;;;;;;;;;;;19.91;54.47;100689.81;7392849;19;1689;-36
2024/03/03 03:34:55;;;;;;;;;;;;;;;20.14;53.92;100693.88;7378380;19;1116;-36
2024/03/03 03:37:24;;;;;;;;;;;;;;;20.12;53.83;100711.13;7393137;19;1523;-37
2024/03/03 03:39:52;;;;;;;;;;;;;;;19.99;54.48;100697.97;7392674;19;1184;-36
2024/03/03 03:42:20;;;;;;;;;;;;;;;20.18;53.89;100700.63;7390259;19;1846;-36
2024/03/03 03:44:48;;;;;;;;;;;;;;;20.20;53.95;100695.97;7392825;19;1133;-36
2024/03/03 03:47:17;;;;;;;;;;;;;;;19.94;54.43;100698.41;7392673;19;1562;-36
2024/03/03 03:49:48;;;;;;;;;;;;;;;19.96;54.57;100692.91;7392210;19;1536;-36
2024/03/03 03:52:16;;;;;;;;;;;;;;;19.92;54.57;100696.88;7392838;19;1207;-36
2024/03/03 03:54:44;;;;;;;;;;;;;;;19.97;54.62;100699.97;7392073;19;1238;-36
2024/03/03 03:57:13;;;;;;;;;;;;;;;19.96;54.50;100700.97;7391070;19;1345;-36
2024/03/03 03:59:41;;;;;;;;;;;;;;;19.94;54.56;100703.78;7391565;19;1274;-36
2024/03/03 04:02:09;;;;;;;;;;;;;;;19.54;55.42;100714.66;7389386;19;1851;-36
2024/03/03 04:04:37;;;;;;;;;;;;;;;19.30;56.14;100706.97;7386651;19;1572;-36
2024/03/03 04:07:09;;;;;;;;;;;;;;;18.93;56.82;100718.34;7392105;19;1499;-36
2024/03/03 04:09:38;;;;;;;;;;;;;;;18.75;57.18;100728.81;7391244;19;1605;-36
2024/03/03 04:12:08;;;;;;;;;;;;;;;18.61;57.54;100708.59;7391534;19;1173;-36
2024/03/03 04:14:36;;;;;;;;;;;;;;;18.57;57.56;100723.25;7391549;19;1282;-36
2024/03/03 04:17:04;;;;;;;;;;;;;;;18.51;57.79;100739.84;7390571;19;1440;-36
2024/03/03 04:19:33;;;;;;;;;;;;;;;18.45;57.87;100735.88;7390759;19;1196;-36
2024/03/03 04:22:01;;;;;;;;;;;;;;;18.40;57.75;100738.94;7388315;19;1841;-36
2024/03/03 04:24:32;;;;;;;;;;;;;;;18.34;57.96;100730.56;7390256;19;1363;-36
2024/03/03 04:27:01;;;;;;;;;;;;;;;18.28;58.02;100732.81;7390596;19;1475;-37
2024/03/03 04:29:30;;;;;;;;;;;;;;;18.01;57.92;100703.06;7391110;19;1378;-36
2024/03/03 04:31:58;;;;;;;;;;;;;;;18.26;58.04;100742.81;7390772;19;1143;-37
2024/03/03 04:34:27;;;;;;;;;;;;;;;18.28;58.09;100739.97;7375679;19;1536;-36
2024/03/03 04:36:55;;;;;;;;;;;;;;;18.40;57.84;100754.16;7388347;19;1550;-36
2024/03/03 04:39:25;;;;;;;;;;;;;;;18.53;57.74;100744.09;7388938;19;2369;-36
2024/03/03 04:41:56;;;;;;;;;;;;;;;18.64;57.37;100737.78;7388792;19;1873;-36
2024/03/03 04:44:25;;;;;;;;;;;;;;;18.76;57.00;100733.19;7390133;19;1539;-36
2024/03/03 04:46:53;;;;;;;;;;;;;;;18.85;56.80;100753.84;7390334;19;1589;-36
2024/03/03 04:49:22;;;;;;;;;;;;;;;18.87;56.76;100762.59;7389948;19;1528;-37
2024/03/03 04:51:50;;;;;;;;;;;;;;;18.87;56.71;100752.72;7390932;19;1033;-40
2024/03/03 04:54:18;;;;;;;;;;;;;;;18.86;56.80;100752.84;7390777;19;1638;-36
2024/03/03 04:56:47;;;;;;;;;;;;;;;18.81;56.98;100747.91;7389975;19;1531;-36
2024/03/03 04:59:18;;;;;;;;;;;;;;;18.83;56.90;100778.09;7389818;19;1504;-36
2024/03/03 05:01:46;;;;;;;;;;;;;;;18.82;56.89;100757.66;7388139;19;1845;-36
2024/03/03 05:04:14;;;;;;;;;;;;;;;18.83;56.79;100753.13;7389790;19;1623;-36
2024/03/03 05:06:48;;;;;;;;;;;;;;;18.85;56.52;100764.56;7389514;19;1161;-36
2024/03/03 05:09:16;;;;;;;;;;;;;;;18.85;56.58;100768.09;7389731;19;1259;-41
2024/03/03 05:11:45;;;;;;;;;;;;;;;18.84;56.70;100766.41;7390059;19;1068;-37
2024/03/03 05:14:13;;;;;;;;;;;;;;;18.85;56.61;100775.28;7390850;19;1465;-36
2024/03/03 05:16:44;;;;;;;;;;;;;;;18.90;56.75;100777.53;7390612;19;1491;-36
2024/03/03 05:19:12;;;;;;;;;;;;;;;18.88;56.70;100765.16;7390235;19;1556;-36
2024/03/03 05:21:41;;;;;;;;;;;;;;;18.85;56.62;100764.56;7388838;19;1861;-36
2024/03/03 05:24:09;;;;;;;;;;;;;;;18.91;56.57;100788.13;7390592;19;1278;-36
2024/03/03 05:26:37;;;;;;;;;;;;;;;18.91;56.50;100780.09;7390230;19;1617;-36
2024/03/03 05:29:06;;;;;;;;;;;;;;;18.87;56.57;100778.66;7390497;19;1094;-36
2024/03/03 05:31:37;;;;;;;;;;;;;;;18.91;56.77;100782.78;7390731;19;1092;-36
2024/03/03 05:34:12;;;;;;;;;;;;;;;18.89;56.58;100787.44;7371303;19;1232;-36
2024/03/03 05:36:40;;;;;;;;;;;;;;;18.89;56.72;100782.06;7390153;19;1538;-37
2024/03/03 05:39:08;;;;;;;;;;;;;;;18.90;56.55;100778.41;7389381;19;1544;-36
2024/03/03 05:41:37;;;;;;;;;;;;;;;18.91;56.41;100789.97;7386925;19;2515;-37
2024/03/03 05:44:07;;;;;;;;;;;;;;;18.88;56.73;100783.06;7386509;19;1541;-36
2024/03/03 05:46:35;;;;;;;;;;;;;;;18.88;56.45;100796.47;7388753;19;1621;-36
2024/03/03 05:49:03;;;;;;;;;;;;;;;18.92;56.64;100795.22;7389204;19;993;-36
2024/03/03 05:51:34;;;;;;;;;;;;;;;18.94;56.58;100793.25;7387946;19;1476;-36
2024/03/03 05:54:04;;;;;;;;;;;;;;;18.87;56.73;100797.44;7388495;19;1563;-36
2024/03/03 05:56:32;;;;;;;;;;;;;;;18.94;56.32;100809.31;7387888;19;1555;-36
2024/03/03 05:59:01;;;;;;;;;;;;;;;18.97;56.43;100806.34;7388156;19;1548;-36
2024/03/03 06:01:29;;;;;;;;;;;;;;;18.92;56.57;100800.56;7386860;19;1865;-36
2024/03/03 06:03:57;;;;;;;;;;;;;;;18.90;56.65;100804.34;7385118;19;1204;-36
2024/03/03 06:06:26;;;;;;;;;;;;;;;18.89;56.64;100811.53;7386493;19;1473;-36
2024/03/03 06:08:57;;;;;;;;;;;;;;;18.88;56.47;100807.19;7385679;19;2042;-36
2024/03/03 06:11:25;;;;;;;;;;;;;;;18.94;56.67;100808.44;7386086;19;970;-36
2024/03/03 06:13:54;;;;;;;;;;;;;;;18.96;56.44;100809.16;7388574;19;970;-36
2024/03/03 06:16:22;;;;;;;;;;;;;;;18.90;56.46;100798.97;7386704;19;1272;-36
2024/03/03 06:18:50;;;;;;;;;;;;;;;18.93;56.46;100807.59;7386703;19;1135;-36
2024/03/03 06:21:19;;;;;;;;;;;;;;;18.94;56.48;100806.63;7386601;19;1858;-36
2024/03/03 06:23:47;;;;;;;;;;;;;;;18.96;56.37;100809.16;7387264;19;1116;-36
2024/03/03 06:26:19;;;;;;;;;;;;;;;18.92;56.47;100791.66;7385498;19;1583;-36
2024/03/03 06:28:48;;;;;;;;;;;;;;;18.95;56.50;100802.97;7385119;19;1582;-37
2024/03/03 06:31:16;;;;;;;;;;;;;;;18.90;56.56;100794.50;7387073;19;1551;-36
2024/03/03 06:33:44;;;;;;;;;;;;;;;18.96;56.52;100803.81;7387022;19;1519;-36
2024/03/03 06:36:17;;;;;;;;;;;;;;;18.99;56.37;100798.19;7371964;19;1212;-36
2024/03/03 06:38:46;;;;;;;;;;;;;;;18.96;56.38;100802.00;7387570;19;1429;-36
2024/03/03 06:41:14;;;;;;;;;;;;;;;18.99;56.49;100841.06;7385887;19;1857;-36
2024/03/03 06:43:46;;;;;;;;;;;;;;;18.92;56.44;100807.72;7386775;19;1274;-36
2024/03/03 06:46:15;;;;;;;;;;;;;;;18.93;56.51;100796.06;7387363;19;1184;-36
2024/03/03 06:48:44;;;;;;;;;;;;;;;18.92;56.64;100791.66;7386947;19;1168;-36
2024/03/03 06:51:14;;;;;;;;;;;;;;;18.92;56.51;100803.25;7386922;19;1501;-36
2024/03/03 06:53:42;;;;;;;;;;;;;;;18.95;56.55;100805.63;7386517;19;1479;-36
2024/03/03 06:56:14;;;;;;;;;;;;;;;18.95;56.60;100804.81;7385999;19;1532;-37
2024/03/03 06:58:46;;;;;;;;;;;;;;;18.96;56.57;100810.03;7387088;19;1574;-36
2024/03/03 07:01:15;;;;;;;;;;;;;;;18.98;56.56;100802.72;7386279;19;1865;-36
2024/03/03 07:06:33;;;;;;;;;;;;;;;19.01;56.42;100802.41;7382572;19;1571;-36
2024/03/03 07:09:02;;;;;;;;;;;;;;;18.99;56.49;100808.91;7387229;19;1044;-36
2024/03/03 07:11:30;;;;;;;;;;;;;;;19.10;56.25;100806.16;7385356;19;1191;-36
2024/03/03 07:14:01;;;;;;;;;;;;;;;19.04;56.50;100802.16;7386962;19;1511;-36
2024/03/03 07:16:30;;;;;;;;;;;;;;;19.05;56.43;100808.38;7386403;19;1496;-36
2024/03/03 07:18:58;;;;;;;;;;;;;;;19.07;56.38;100803.72;7386209;19;1587;-36
2024/03/03 07:21:27;;;;;;;;;;;;;;;18.99;56.65;100807.06;7385030;19;1849;-36
2024/03/03 07:23:55;;;;;;;;;;;;;;;18.82;57.00;100818.41;7385345;19;1464;-36
2024/03/03 07:26:23;;;;;;;;;;;;;;;18.77;57.02;100820.63;7385274;19;976;-36
2024/03/03 07:28:52;;;;;;;;;;;;;;;18.64;57.15;100805.59;7385031;19;1190;-36
2024/03/03 07:31:23;;;;;;;;;;;;;;;18.55;57.35;100808.22;7385309;19;1176;-36
2024/03/03 07:33:51;;;;;;;;;;;;;;;18.45;57.62;100816.19;7384106;19;1266;-36
2024/03/03 07:36:20;;;;;;;;;;;;;;;18.39;57.67;100797.97;7368297;19;1508;-37
2024/03/03 07:38:48;;;;;;;;;;;;;;;18.40;57.62;100811.25;7387313;19;1204;-38
2024/03/03 07:41:16;;;;;;;;;;;;;;;18.34;57.88;100805.53;7393066;19;1129;-36
2024/03/03 07:43:46;;;;;;;;;;;;;;;18.25;57.94;100810.69;7389889;19;1842;-37
2024/03/03 07:46:14;;;;;;;;;;;;;;;18.53;57.50;100831.59;7393304;19;1175;-36
2024/03/03 07:48:45;;;;;;;;;;;;;;;18.77;56.93;100826.81;7392366;19;1276;-36
2024/03/03 07:51:14;;;;;;;;;;;;;;;18.71;56.94;100816.63;7392624;19;1630;-36
2024/03/03 07:53:42;;;;;;;;;;;;;;;18.78;57.08;100852.63;7391799;19;1558;-36
2024/03/03 07:56:11;;;;;;;;;;;;;;;18.91;56.58;100827.50;7392110;19;1643;-36
2024/03/03 07:58:39;;;;;;;;;;;;;;;18.93;56.55;100810.28;7391359;19;1065;-36
2024/03/03 08:01:08;;;;;;;;;;;;;;;19.02;56.49;100813.97;7391199;19;1298;-36
2024/03/03 08:03:36;;;;;;;;;;;;;;;19.04;56.32;100807.53;7389077;19;1856;-36
2024/03/03 08:06:07;;;;;;;;;;;;;;;19.04;56.42;100795.97;7389047;19;2499;-41
2024/03/03 08:08:36;;;;;;;;;;;;;;;19.06;56.13;100816.28;7393525;19;1180;-43
2024/03/03 08:11:04;;;;;;;;;;;;;;;19.04;56.22;100812.88;7392272;19;1074;-36
2024/03/03 08:13:32;;;;;;;;;;;;;;;19.05;56.33;100798.50;7390980;19;1613;-36
2024/03/03 08:16:01;;;;;;;;;;;;;;;19.08;56.24;100811.63;7392280;19;1500;-40
2024/03/03 08:18:29;;;;;;;;;;;;;;;19.08;56.18;100818.84;7391368;19;1570;-36
2024/03/03 08:20:57;;;;;;;;;;;;;;;19.07;56.38;100809.91;7391442;19;1614;-36
2024/03/03 08:23:28;;;;;;;;;;;;;;;19.13;56.47;100816.56;7385563;19;1888;-36
2024/03/03 08:25:57;;;;;;;;;;;;;;;19.17;56.27;100811.81;7391914;19;971;-36
2024/03/03 08:28:25;;;;;;;;;;;;;;;19.16;56.37;100815.44;7391706;19;1005;-36
2024/03/03 08:30:53;;;;;;;;;;;;;;;19.18;56.21;100806.31;7391202;19;1196;-40
2024/03/03 08:33:22;;;;;;;;;;;;;;;19.18;56.26;100802.75;7390406;19;1270;-36
2024/03/03 08:35:50;;;;;;;;;;;;;;;19.18;56.27;100818.84;7375690;19;1469;-36
2024/03/03 08:38:18;;;;;;;;;;;;;;;19.22;56.18;100817.63;7390040;19;1543;-36
2024/03/03 08:40:49;;;;;;;;;;;;;;;19.19;56.25;100817.88;7388873;19;1521;-36
2024/03/03 08:43:18;;;;;;;;;;;;;;;19.24;56.11;100816.50;7388858;19;1885;-36
2024/03/03 08:45:46;;;;;;;;;;;;;;;19.23;55.97;100816.63;7391062;19;1125;-36
2024/03/03 08:48:14;;;;;;;;;;;;;;;19.32;56.10;100818.50;7390565;19;1649;-36
2024/03/03 08:50:43;;;;;;;;;;;;;;;19.32;56.02;100806.91;7387827;19;1176;-36
2024/03/03 08:53:11;;;;;;;;;;;;;;;19.29;56.08;100808.03;7390144;19;1179;-36
2024/03/03 08:55:39;;;;;;;;;;;;;;;19.26;56.02;100811.84;7390886;19;1052;-36
2024/03/03 08:58:11;;;;;;;;;;;;;;;19.33;55.94;100806.75;7390814;19;2006;-36
2024/03/03 09:00:39;;;;;;;;;;;;;;;19.34;56.03;100815.66;7389905;19;1430;-36
2024/03/03 09:03:07;;;;;;;;;;;;;;;19.32;55.94;100817.63;7388237;19;1849;-36
2024/03/03 09:05:36;;;;;;;;;;;;;;;19.34;55.97;100807.59;7389650;19;1551;-36
2024/03/03 09:08:04;;;;;;;;;;;;;;;19.34;55.83;100813.84;7389165;19;1178;-36
2024/03/03 09:10:32;;;;;;;;;;;;;;;19.39;55.71;100816.09;7388613;19;1137;-36
2024/03/03 09:13:01;;;;;;;;;;;;;;;19.19;56.12;100805.31;7389782;19;1480;-36
2024/03/03 09:15:32;;;;;;;;;;;;;;;19.00;56.90;100800.75;7389953;19;1104;-36
2024/03/03 09:18:00;;;;;;;;;;;;;;;18.90;56.89;100804.34;7389144;19;1547;-36
2024/03/03 09:20:28;;;;;;;;;;;;;;;18.76;57.53;100806.38;7389241;19;1200;-36
2024/03/03 09:22:56;;;;;;;;;;;;;;;18.68;57.76;100801.69;7388801;19;1855;-36
2024/03/03 09:25:25;;;;;;;;;;;;;;;18.60;57.86;100793.47;7388817;19;1861;-36
2024/03/03 09:27:53;;;;;;;;;;;;;;;18.60;57.67;100798.81;7389325;19;1566;-36
2024/03/03 09:30:21;;;;;;;;;;;;;;;18.60;57.78;100793.47;7388828;19;1575;-36
2024/03/03 09:32:53;;;;;;;;;;;;;;;18.55;57.69;100797.50;7388420;19;1520;-36
2024/03/03 09:35:21;;;;;;;;;;;;;;;18.49;58.02;100788.16;7373369;19;1600;-36
2024/03/03 09:37:50;;;;;;;;;;;;;;;18.37;58.11;100790.06;7389036;19;1468;-36
2024/03/03 09:40:20;;;;;;;;;;;;;;;18.53;57.96;100797.63;7389554;19;1103;-36
2024/03/03 09:42:49;;;;;;;;;;;;;;;18.74;57.35;100794.06;7388177;19;1891;-36
2024/03/03 09:45:21;;;;;;;;;;;;;;;18.98;56.97;100791.13;7388946;19;1707;-36
2024/03/03 09:47:50;;;;;;;;;;;;;;;18.96;56.81;100785.91;7389057;19;1535;-36
2024/03/03 09:50:22;;;;;;;;;;;;;;;18.76;57.38;100776.03;7388972;19;1485;-36
2024/03/03 09:52:53;;;;;;;;;;;;;;;18.63;57.63;100792.34;7388874;19;1566;-36
2024/03/03 09:55:22;;;;;;;;;;;;;;;18.53;57.81;100786.94;7387525;19;1805;-36
2024/03/03 09:57:50;;;;;;;;;;;;;;;18.91;57.21;100790.81;7388501;19;1126;-39
2024/03/03 10:00:19;;;;;;;;;;;;;;;19.29;56.26;100794.63;7388789;19;1729;-36
2024/03/03 10:02:49;;;;;;;;;;;;;;;19.36;56.09;100793.09;7385765;19;1870;-36
2024/03/03 10:05:18;;;;;;;;;;;;;;;19.46;55.77;100777.03;7387978;19;1441;-36
2024/03/03 10:07:54;;;;;;;;;;;;;;;19.52;55.76;100780.97;7387900;19;1398;-36
2024/03/03 10:10:26;;;;;;;;;;;;;;;19.52;55.82;100772.94;7387906;19;1187;-37
2024/03/03 10:12:54;;;;;;;;;;;;;;;19.47;55.84;100776.88;7387999;19;1235;-36
2024/03/03 10:15:23;;;;;;;;;;;;;;;19.42;55.87;100773.78;7387789;19;1109;-36
2024/03/03 10:17:52;;;;;;;;;;;;;;;19.41;55.84;100785.47;7387706;19;1196;-36
2024/03/03 10:20:20;;;;;;;;;;;;;;;19.43;56.17;100780.81;7387435;19;1235;-36
2024/03/03 10:22:51;;;;;;;;;;;;;;;19.40;56.21;100774.91;7388435;19;1877;-36
2024/03/03 10:25:21;;;;;;;;;;;;;;;19.41;56.05;100761.34;7386177;19;1210;-36
2024/03/03 10:27:51;;;;;;;;;;;;;;;19.44;55.93;100770.97;7388280;19;1604;-36
2024/03/03 10:30:22;;;;;;;;;;;;;;;19.45;55.99;100749.34;7387797;19;1574;-36
2024/03/03 10:32:51;;;;;;;;;;;;;;;19.63;55.60;100754.88;7387256;19;1201;-36
2024/03/03 10:35:21;;;;;;;;;;;;;;;19.74;55.25;100750.41;7372629;19;1586;-36
2024/03/03 10:37:53;;;;;;;;;;;;;;;19.73;55.42;100762.97;7388066;19;1445;-36
2024/03/03 10:40:22;;;;;;;;;;;;;;;19.72;55.52;100747.88;7387910;19;1102;-37
2024/03/03 10:42:50;;;;;;;;;;;;;;;19.71;55.38;100746.16;7387662;19;1856;-36
2024/03/03 10:45:18;;;;;;;;;;;;;;;19.70;55.45;100749.81;7386809;19;1160;-36
2024/03/03 10:47:47;;;;;;;;;;;;;;;19.70;55.81;100736.41;7387287;19;1526;-36
2024/03/03 10:50:17;;;;;;;;;;;;;;;19.66;55.65;100745.72;7386881;19;1607;-36
2024/03/03 10:52:45;;;;;;;;;;;;;;;19.66;55.59;100721.56;7386846;19;1463;-36
2024/03/03 10:55:16;;;;;;;;;;;;;;;19.66;55.78;100737.66;7386536;19;1065;-36
2024/03/03 10:57:46;;;;;;;;;;;;;;;19.64;55.74;100732.44;7387223;19;1016;-36
2024/03/03 11:00:22;;;;;;;;;;;;;;;19.61;55.94;100729.19;7386371;19;1370;-36
2024/03/03 11:02:51;;;;;;;;;;;;;;;19.62;55.80;100726.38;7385967;19;1862;-36
2024/03/03 11:05:20;;;;;;;;;;;;;;;19.61;56.09;100724.66;7385709;19;1157;-36
2024/03/03 11:07:48;;;;;;;;;;;;;;;19.63;56.01;100716.47;7387048;19;1100;-36
2024/03/03 11:10:19;;;;;;;;;;;;;;;19.58;55.84;100708.88;7386256;19;1450;-36
2024/03/03 11:12:51;;;;;;;;;;;;;;;19.63;55.94;100700.38;7386079;19;1472;-36
2024/03/03 11:15:20;;;;;;;;;;;;;;;19.64;56.00;100719.03;7392961;19;1528;-36
2024/03/03 11:17:48;;;;;;;;;;;;;;;19.61;56.07;100707.72;7393676;19;1499;-36
2024/03/03 11:20:20;;;;;;;;;;;;;;;19.61;55.83;100700.50;7392945;19;1545;-41
2024/03/03 11:22:56;;;;;;;;;;;;;;;19.59;56.13;100699.81;7393766;19;1861;-36
2024/03/03 11:25:30;;;;;;;;;;;;;;;19.64;56.04;100702.94;7392900;19;1580;-37
2024/03/03 11:27:59;;;;;;;;;;;;;;;19.63;55.85;100695.00;7392924;19;1582;-36
2024/03/03 11:30:29;;;;;;;;;;;;;;;19.59;56.00;100690.94;7392829;19;1149;-36
2024/03/03 11:32:58;;;;;;;;;;;;;;;19.62;55.96;100701.38;7392475;19;1648;-36
2024/03/03 11:35:28;;;;;;;;;;;;;;;19.59;56.05;100677.50;7386915;19;1532;-36
2024/03/03 11:37:56;;;;;;;;;;;;;;;19.63;56.08;100695.00;7388560;19;1500;-36
2024/03/03 11:40:28;;;;;;;;;;;;;;;19.57;56.13;100679.50;7392815;19;1600;-36
2024/03/03 11:42:57;;;;;;;;;;;;;;;19.63;56.05;100697.69;7393565;19;1884;-36
2024/03/03 11:45:40;;;;;;;;;;;;;;;19.63;56.08;100689.66;7392880;19;1480;-36
2024/03/03 11:48:11;;;;;;;;;;;;;;;19.62;55.92;100685.28;7392207;19;1472;-36
2024/03/03 11:50:40;;;;;;;;;;;;;;;19.63;55.92;100703.06;7392193;19;1826;-36
2024/03/03 11:53:09;;;;;;;;;;;;;;;19.65;56.01;100666.22;7391666;19;1302;-36
2024/03/03 11:55:41;;;;;;;;;;;;;;;19.64;56.06;100683.31;7392156;19;1598;-36
2024/03/03 11:58:09;;;;;;;;;;;;;;;19.66;56.05;100682.16;7391930;19;1577;-36
2024/03/03 12:00:38;;;;;;;;;;;;;;;19.66;56.13;100684.00;7392426;19;1298;-36
2024/03/03 12:03:09;;;;;;;;;;;;;;;19.64;55.91;100662.69;7392497;19;1853;-36
2024/03/03 12:05:37;;;;;;;;;;;;;;;19.65;55.97;100682.31;7392139;19;1426;-36
2024/03/03 12:08:08;;;;;;;;;;;;;;;19.70;56.05;100677.38;7391389;19;1266;-36
2024/03/03 12:10:37;;;;;;;;;;;;;;;19.66;56.19;100667.91;7391071;19;1188;-42
2024/03/03 12:13:08;;;;;;;;;;;;;;;19.64;56.09;100670.75;7391817;19;1203;-36
2024/03/03 12:15:37;;;;;;;;;;;;;;;19.63;56.15;100673.56;7390928;19;1224;-37
2024/03/03 12:18:11;;;;;;;;;;;;;;;19.64;56.15;100665.38;7391520;19;1538;-47
2024/03/03 12:20:40;;;;;;;;;;;;;;;19.64;56.15;100661.84;7393346;19;1619;-37
2024/03/03 12:23:09;;;;;;;;;;;;;;;19.67;56.08;100650.81;7392067;19;1871;-37
2024/03/03 12:25:37;;;;;;;;;;;;;;;19.71;55.92;100660.31;7390717;19;1322;-46
2024/03/03 12:28:10;;;;;;;;;;;;;;;19.71;55.92;100665.66;7392828;19;1835;-36
2024/03/03 12:30:38;;;;;;;;;;;;;;;19.70;56.16;100660.44;7393341;19;1608;-38
2024/03/03 12:33:08;;;;;;;;;;;;;;;19.70;56.08;100666.66;7392584;19;1131;-38
2024/03/03 12:35:37;;;;;;;;;;;;;;;19.68;56.10;100657.91;7392043;19;1481;-36
2024/03/03 12:38:05;;;;;;;;;;;;;;;19.70;56.03;100653.22;7381474;19;1567;-36
2024/03/03 12:40:34;;;;;;;;;;;;;;;19.67;55.91;100665.06;7393027;19;1193;-37
2024/03/03 12:43:03;;;;;;;;;;;;;;;19.71;55.93;100651.38;7389652;19;2384;-39
2024/03/03 12:45:34;;;;;;;;;;;;;;;19.71;56.15;100644.22;7389263;19;1859;-37
2024/03/03 12:48:07;;;;;;;;;;;;;;;19.69;56.23;100640.78;7390831;19;1527;-36
2024/03/03 12:50:35;;;;;;;;;;;;;;;19.72;56.11;100634.34;7389803;19;1492;-36
2024/03/03 12:53:04;;;;;;;;;;;;;;;19.69;56.05;100635.41;7390710;19;1586;-36
2024/03/03 12:55:34;;;;;;;;;;;;;;;19.67;56.27;100635.56;7390255;19;1473;-36
2024/03/03 12:58:04;;;;;;;;;;;;;;;19.68;56.30;100639.13;7389095;19;2502;-36
2024/03/03 13:00:35;;;;;;;;;;;;;;;19.69;56.16;100624.69;7390432;19;1022;-36